Time;durP1;ratioP1;P1;durP2;ratioP2;P2;SDS_P1;SDS_P2;PMS_P1;PMS_P2;Temp;Humidity;BMP_temperature;BMP_pressure;BME280_temperature;BME280_humidity;BME280_pressure;Samples;Min_cycle;Max_cycle;Signal;HPM_P1;HPM_P2
2022/01/19 00:02:19;;;;;;;16.25;6.75;;;2.50;99.90;;;2.91;100.00;102169.47;5034961;28;20029;-82
2022/01/19 00:04:45;;;;;;;17.10;7.40;;;2.30;99.90;;;2.82;100.00;102171.09;5034949;28;20093;-81
2022/01/19 00:07:11;;;;;;;18.67;7.25;;;2.20;99.90;;;2.80;100.00;102165.00;5035298;28;20138;-83
2022/01/19 00:09:38;;;;;;;13.27;7.93;;;2.20;99.90;;;2.85;100.00;102170.56;5035623;28;20029;-83
2022/01/19 00:12:04;;;;;;;16.42;7.68;;;2.20;99.90;;;2.79;100.00;102171.66;5034956;28;20041;-82
2022/01/19 00:14:31;;;;;;;19.80;7.80;;;2.20;99.90;;;2.80;100.00;102174.13;5034417;28;20133;-83
2022/01/19 00:16:57;;;;;;;20.30;8.45;;;2.10;99.90;;;2.79;100.00;102166.13;5034886;28;20044;-81
2022/01/19 00:19:22;;;;;;;15.73;8.43;;;2.10;99.90;;;2.77;100.00;102162.78;5036051;28;20029;-85
2022/01/19 00:21:48;;;;;;;19.10;9.15;;;2.10;99.90;;;2.71;100.00;102158.34;5035224;28;20060;-81
2022/01/19 00:24:17;;;;;;;20.80;8.05;;;2.10;99.90;;;2.60;100.00;102161.06;5034775;28;20025;-85
2022/01/19 00:26:43;;;;;;;11.90;7.35;;;2.00;99.90;;;2.46;100.00;102148.03;5037961;28;20033;-84
2022/01/19 00:29:09;;;;;;;15.80;7.25;;;1.80;99.90;;;2.30;100.00;102129.75;5038058;28;20102;-80
2022/01/19 00:31:42;;;;;;;15.27;7.40;;;1.70;99.90;;;2.08;100.00;102114.19;5054961;28;20478;-83
2022/01/19 00:34:08;;;;;;;14.57;6.70;;;1.50;99.90;;;1.89;100.00;102098.34;5067361;28;20544;-85
2022/01/19 00:36:37;;;;;;;18.52;8.60;;;1.30;99.90;;;1.69;100.00;102084.44;5046850;28;20037;-81
2022/01/19 00:39:03;;;;;;;16.20;7.90;;;1.20;99.90;;;1.63;100.00;102086.31;5058958;28;20048;-85
2022/01/19 00:41:31;;;;;;;16.77;7.95;;;1.10;99.90;;;1.64;100.00;102081.66;5071061;28;20032;-84
2022/01/19 00:43:57;;;;;;;16.75;8.23;;;1.10;99.90;;;1.70;100.00;102075.91;5044005;28;20428;-83
2022/01/19 00:46:23;;;;;;;16.60;8.73;;;1.10;99.90;;;1.83;100.00;102074.63;5037656;28;20028;-82
2022/01/19 00:48:49;;;;;;;20.20;9.27;;;1.20;99.90;;;1.95;100.00;102081.59;5055989;28;20033;-87
2022/01/19 00:51:15;;;;;;;19.67;8.90;;;1.30;99.90;;;2.00;100.00;102072.50;5055490;28;20029;-86
2022/01/19 00:53:40;;;;;;;16.60;8.63;;;1.40;99.90;;;2.02;100.00;102075.84;5037902;28;20373;-82
2022/01/19 00:56:06;;;;;;;22.90;9.73;;;1.40;99.90;;;2.06;100.00;102087.97;5038184;28;20037;-82
2022/01/19 00:58:32;;;;;;;22.00;9.38;;;1.40;99.90;;;2.10;100.00;102072.56;5037586;28;20029;-82
2022/01/19 01:01:01;;;;;;;23.17;9.27;;;1.40;99.90;;;2.07;100.00;102071.19;5036919;28;20056;-82
2022/01/19 01:03:27;;;;;;;19.58;9.40;;;1.40;99.90;;;1.97;100.00;102071.13;5053478;28;20036;-82
2022/01/19 01:05:59;;;;;;;15.68;9.65;;;1.40;99.90;;;1.96;100.00;102076.88;5036469;28;20052;-82
2022/01/19 01:08:25;;;;;;;17.98;8.18;;;1.30;99.90;;;1.89;100.00;102057.03;5036196;28;20040;-83
2022/01/19 01:10:51;;;;;;;16.50;8.32;;;1.30;99.90;;;1.82;100.00;102056.44;5054116;28;20033;-82
2022/01/19 01:16:16;;;;;;;19.88;8.43;;;1.20;99.90;;;1.61;100.00;102024.34;5053514;28;20148;-84
2022/01/19 01:18:42;;;;;;;22.40;9.55;;;1.10;99.90;;;1.58;100.00;102025.69;5036255;28;20082;-81
2022/01/19 01:21:08;;;;;;;22.33;9.60;;;1.00;99.90;;;1.72;100.00;102028.81;5053848;28;20247;-81
2022/01/19 01:23:35;;;;;;;18.52;8.30;;;1.10;99.90;;;1.76;100.00;102027.19;5053397;28;20029;-84
2022/01/19 01:26:04;;;;;;;22.77;8.25;;;1.10;99.90;;;1.63;100.00;102022.16;5032965;28;20025;-80
2022/01/19 01:28:30;;;;;;;16.40;8.48;;;1.00;99.90;;;1.42;100.00;102005.47;5033053;28;20091;-83
2022/01/19 01:30:59;;;;;;;17.42;9.02;;;0.90;99.90;;;1.33;100.00;101997.97;5032482;28;20041;-82
2022/01/19 01:33:25;;;;;;;22.42;10.15;;;0.70;99.90;;;1.22;100.00;101979.72;5035050;28;20033;-81
2022/01/19 01:35:52;;;;;;;19.17;8.07;;;0.70;99.90;;;1.17;100.00;101969.50;5035183;28;20516;-82
2022/01/19 01:38:18;;;;;;;19.80;9.60;;;0.60;99.90;;;1.13;100.00;101960.09;5034489;28;20045;-81
2022/01/19 01:40:44;;;;;;;21.08;10.10;;;0.60;99.90;;;1.09;100.00;101955.41;5032575;28;20428;-82
2022/01/19 01:43:13;;;;;;;23.88;10.32;;;0.50;99.90;;;1.01;100.00;101940.22;5032703;28;20119;-83
2022/01/19 01:45:53;;;;;;;22.60;9.30;;;0.50;99.90;;;0.96;100.00;101934.69;5049057;28;20044;-84
2022/01/19 01:48:24;;;;;;;17.77;9.00;;;0.40;99.90;;;0.99;100.00;101945.16;5032573;28;20029;-84
2022/01/19 01:53:39;;;;;;;22.23;9.43;;;0.40;99.90;;;1.04;100.00;101968.03;5033830;28;20091;-84
2022/01/19 01:56:29;;;;;;;20.25;8.20;;;0.40;99.90;;;1.11;100.00;101977.97;5032287;28;20033;-81
2022/01/19 01:58:55;;;;;;;18.60;8.77;;;0.40;99.90;;;0.99;100.00;101989.19;5024289;28;20132;-83
2022/01/19 02:01:22;;;;;;;22.85;9.90;;;0.40;99.90;;;0.89;100.00;101994.59;5032459;28;20129;-83
2022/01/19 02:03:48;;;;;;;21.10;8.48;;;0.30;99.90;;;0.80;100.00;101996.16;5032056;28;20030;-83
2022/01/19 02:06:31;;;;;;;19.45;9.18;;;0.20;99.90;;;0.74;100.00;101988.94;5032738;28;20060;-82
2022/01/19 02:09:12;;;;;;;24.02;9.65;;;0.20;99.90;;;0.66;100.00;101982.00;5031735;28;20195;-82
2022/01/19 02:22:51;;;;;;;24.75;11.30;;;0.50;99.90;;;1.15;100.00;101959.84;5033439;28;20117;-81
2022/01/19 02:25:25;;;;;;;24.20;10.80;;;0.60;99.90;;;1.15;100.00;101957.09;5037359;28;20020;-82
2022/01/19 02:31:35;;;;;;;20.30;9.63;;;0.60;99.90;;;1.12;100.00;101941.97;5053543;28;20044;-81
2022/01/19 02:41:49;;;;;;;19.33;8.73;;;0.30;99.90;;;0.68;100.00;101929.47;5055030;28;20048;-82
2022/01/19 02:44:30;;;;;;;20.63;9.90;;;0.10;99.90;;;0.45;100.00;101917.72;5052614;28;20045;-79
2022/01/19 02:49:51;;;;;;;18.13;9.85;;;-0.10;99.90;;;0.44;100.00;101912.50;5053851;28;20623;-84
2022/01/19 02:52:23;;;;;;;31.30;11.65;;;-0.10;99.90;;;0.61;100.00;101918.69;5053717;28;20044;-82
2022/01/19 02:54:51;;;;;;;25.20;11.82;;;0.00;99.90;;;0.72;100.00;101903.09;5054029;28;20047;-84
2022/01/19 02:57:25;;;;;;;28.70;11.73;;;0.10;99.90;;;0.78;100.00;101899.31;5052301;28;20029;-83
2022/01/19 03:10:42;;;;;;;23.05;11.25;;;0.20;99.90;;;0.78;100.00;101880.88;5058767;28;20083;-83
2022/01/19 03:13:11;;;;;;;28.67;12.55;;;0.30;99.90;;;0.73;100.00;101880.88;5056300;28;20040;-79
2022/01/19 03:15:37;;;;;;;21.80;10.93;;;0.30;99.90;;;0.79;100.00;101881.72;5056991;28;20443;-81
2022/01/19 03:18:06;;;;;;;28.27;13.35;;;0.30;99.90;;;0.86;100.00;101887.84;5055831;28;20040;-81
2022/01/19 03:20:32;;;;;;;24.90;13.18;;;0.40;99.90;;;0.92;100.00;101892.28;5058039;28;20043;-85
2022/01/19 03:25:24;;;;;;;28.52;13.50;;;0.50;99.90;;;1.17;100.00;101889.69;5050507;28;20033;-80
2022/01/19 03:27:50;;;;;;;33.75;14.93;;;0.60;99.90;;;1.27;100.00;101883.41;5050753;28;20160;-81
2022/01/19 03:30:20;;;;;;;29.13;15.43;;;0.70;99.90;;;1.39;100.00;101886.78;5035370;28;20649;-81
2022/01/19 03:32:48;;;;;;;29.17;14.48;;;0.90;99.90;;;1.53;100.00;101888.81;5050053;28;20029;-80
2022/01/19 03:35:17;;;;;;;29.98;16.25;;;1.00;99.90;;;1.65;100.00;101872.06;5050854;28;20120;-81
2022/01/19 03:37:43;;;;;;;29.77;15.75;;;1.10;99.90;;;1.78;100.00;101865.22;5037361;28;20033;-80
2022/01/19 03:40:10;;;;;;;38.63;17.10;;;1.30;99.90;;;1.87;100.00;101858.06;5037228;28;20030;-83
2022/01/19 03:42:39;;;;;;;31.60;16.80;;;1.40;99.90;;;2.00;100.00;101857.56;5036518;28;20488;-81
2022/01/19 03:45:08;;;;;;;32.05;17.02;;;1.50;99.90;;;2.14;100.00;101847.69;5053185;28;20033;-81
2022/01/19 03:47:42;;;;;;;31.33;17.27;;;1.60;99.90;;;2.29;100.00;101864.25;5053367;28;20044;-82
2022/01/19 03:50:12;;;;;;;27.13;16.27;;;1.70;99.90;;;2.40;100.00;101862.31;5053078;28;20041;-84
2022/01/19 03:52:38;;;;;;;27.92;15.55;;;1.90;99.90;;;2.61;100.00;101850.19;5038474;28;20034;-82
2022/01/19 03:55:06;;;;;;;25.48;15.55;;;2.00;99.90;;;2.75;100.00;101843.03;5037385;28;20051;-82
2022/01/19 03:57:32;;;;;;;24.05;15.75;;;2.10;99.90;;;2.83;100.00;101830.59;5037532;28;20033;-84
2022/01/19 03:59:58;;;;;;;22.15;14.88;;;2.20;99.90;;;2.96;100.00;101817.03;5053000;28;20040;-81
2022/01/19 04:02:25;;;;;;;20.25;13.13;;;2.30;99.90;;;3.06;100.00;101818.94;5036005;28;20065;-82
2022/01/19 04:05:03;;;;;;;17.95;12.93;;;2.40;99.90;;;3.11;100.00;101808.72;5053857;28;20041;-82
2022/01/19 04:07:30;;;;;;;20.70;12.23;;;2.50;99.90;;;3.22;100.00;101804.00;5036955;28;20044;-80
2022/01/19 04:09:55;;;;;;;17.77;11.45;;;2.60;99.90;;;3.32;100.00;101795.69;5036920;28;20547;-82
2022/01/19 04:12:41;;;;;;;17.00;10.75;;;2.70;99.90;;;3.48;100.00;101797.28;5036104;28;20030;-83
2022/01/19 04:15:13;;;;;;;17.58;10.48;;;2.80;99.90;;;3.47;100.00;101783.72;5036540;28;20034;-80
2022/01/19 04:17:46;;;;;;;14.43;10.07;;;2.90;99.90;;;3.54;100.00;101782.31;5051767;28;20107;-83
2022/01/19 04:20:12;;;;;;;18.98;12.13;;;2.90;99.90;;;3.55;100.00;101775.69;5034616;28;20091;-82
2022/01/19 04:22:38;;;;;;;13.00;9.38;;;2.90;99.90;;;3.62;100.00;101781.75;5051354;28;20053;-81
2022/01/19 04:25:26;;;;;;;18.58;9.95;;;3.00;99.90;;;3.59;100.00;101762.16;5041063;28;20052;-81
2022/01/19 04:27:52;;;;;;;17.45;9.60;;;3.00;99.90;;;3.62;100.00;101767.94;5057610;28;20075;-83
2022/01/19 04:30:20;;;;;;;13.93;8.80;;;3.00;99.90;;;3.69;100.00;101757.38;5038170;28;20037;-81
2022/01/19 04:35:24;;;;;;;10.93;8.50;;;3.00;99.90;;;3.68;100.00;101760.44;5056681;28;20151;-81
2022/01/19 04:54:41;;;;;;;19.98;9.25;;;3.10;99.90;;;3.70;100.00;101712.06;5057048;28;20044;-83
2022/01/19 05:07:58;;;;;;;11.52;7.95;;;3.20;99.90;;;3.90;100.00;101713.84;5057452;28;20033;-82
2022/01/19 05:13:26;;;;;;;13.25;9.18;;;3.20;99.90;;;3.93;100.00;101704.16;5055038;28;20033;-81
2022/01/19 05:15:53;;;;;;;10.23;8.57;;;3.20;99.90;;;3.91;100.00;101698.09;5037265;28;20495;-85
2022/01/19 05:18:22;;;;;;;10.57;8.45;;;3.20;99.90;;;3.94;100.00;101692.00;5037126;28;20322;-81
2022/01/19 05:20:49;;;;;;;12.10;8.38;;;3.30;99.90;;;3.96;100.00;101687.00;5053192;28;20116;-85
2022/01/19 05:23:18;;;;;;;10.82;8.38;;;3.30;99.90;;;3.97;100.00;101683.13;5036775;28;20021;-85
2022/01/19 05:25:45;;;;;;;10.65;9.10;;;3.40;99.90;;;4.07;100.00;101685.81;5052691;28;20148;-81
2022/01/19 05:28:13;;;;;;;11.95;8.80;;;3.40;99.90;;;4.12;100.00;101688.50;5053441;28;20071;-83
2022/01/19 05:30:40;;;;;;;10.90;8.75;;;3.50;99.90;;;4.13;100.00;101682.72;5036237;28;20037;-83
2022/01/19 05:33:10;;;;;;;11.05;9.93;;;3.50;99.90;;;4.14;100.00;101673.28;5036114;28;20029;-84
2022/01/19 05:35:37;;;;;;;12.35;9.38;;;3.50;99.90;;;4.09;100.00;101669.75;5035618;28;20481;-84
2022/01/19 05:38:03;;;;;;;12.05;9.50;;;3.60;99.90;;;4.12;100.00;101663.63;5052864;28;20040;-83
2022/01/19 05:40:29;;;;;;;14.27;10.57;;;3.60;99.90;;;4.21;100.00;101656.34;5036115;28;20021;-85
2022/01/19 05:42:55;;;;;;;12.25;10.60;;;3.60;99.90;;;4.30;100.00;101649.09;5036218;28;20035;-84
2022/01/19 05:45:22;;;;;;;11.20;10.02;;;3.70;99.90;;;4.25;100.00;101646.38;5053089;28;20025;-84
2022/01/19 05:47:48;;;;;;;15.18;10.65;;;3.70;99.90;;;4.23;100.00;101632.00;5053485;28;20116;-83
2022/01/19 05:50:14;;;;;;;11.45;10.25;;;3.70;99.90;;;4.28;100.00;101622.81;5037569;28;20025;-83
2022/01/19 05:52:40;;;;;;;11.70;10.40;;;3.80;99.90;;;4.39;100.00;101621.59;5052674;28;20033;-84
2022/01/19 05:55:07;;;;;;;14.80;10.48;;;3.80;99.90;;;4.30;100.00;101621.44;5054033;28;20536;-85
2022/01/19 05:57:33;;;;;;;11.80;10.32;;;3.80;99.90;;;4.39;100.00;101613.31;5039842;28;20025;-86
2022/01/19 05:59:59;;;;;;;14.35;10.88;;;3.80;99.90;;;4.28;100.00;101611.75;5055561;28;20448;-85
2022/01/19 06:02:25;;;;;;;11.98;10.73;;;3.80;99.90;;;4.38;100.00;101622.72;5053549;28;20074;-82
2022/01/19 06:04:51;;;;;;;10.05;9.02;;;3.80;99.90;;;4.31;100.00;101620.28;5052748;28;20025;-79
2022/01/19 06:07:17;;;;;;;9.55;8.65;;;3.80;99.90;;;4.33;100.00;101620.84;5036239;28;20036;-78
2022/01/19 06:12:14;;;;;;;8.70;7.85;;;3.80;99.90;;;4.43;100.00;101609.66;5052799;28;20532;-82
2022/01/19 06:14:45;;;;;;;6.88;6.18;;;3.90;99.90;;;4.47;100.00;101598.81;5052665;28;20025;-78
2022/01/19 06:17:14;;;;;;;7.30;6.55;;;3.90;99.90;;;4.42;100.00;101610.78;5035319;28;20445;-76
2022/01/19 06:19:41;;;;;;;5.75;5.10;;;3.80;99.90;;;4.42;100.00;101605.25;5053225;28;20107;-76
2022/01/19 06:22:10;;;;;;;6.35;5.75;;;3.90;99.90;;;4.32;100.00;101591.53;5034846;28;20075;-81
2022/01/19 06:24:37;;;;;;;5.70;5.20;;;3.90;99.90;;;4.42;100.00;101596.13;5051926;28;20484;-82
2022/01/19 06:27:03;;;;;;;6.18;5.57;;;3.90;99.90;;;4.27;100.00;101588.00;5032078;28;20040;-79
2022/01/19 06:29:29;;;;;;;6.93;5.63;;;3.80;99.90;;;4.31;100.00;101595.41;5048452;28;20021;-79
2022/01/19 06:31:55;;;;;;;5.43;4.93;;;3.80;99.90;;;4.29;100.00;101600.41;5032874;28;20025;-80
2022/01/19 06:34:21;;;;;;;5.45;4.82;;;3.80;99.90;;;4.31;100.00;101592.63;5033296;28;20440;-80
2022/01/19 06:36:51;;;;;;;5.90;4.88;;;3.80;99.90;;;4.36;100.00;101580.72;5032237;28;20434;-83
2022/01/19 06:39:21;;;;;;;5.57;4.50;;;3.90;99.90;;;4.38;100.00;101584.00;5033285;28;20021;-79
2022/01/19 06:41:50;;;;;;;6.07;4.50;;;3.90;99.90;;;4.42;100.00;101576.75;5038500;28;20026;-78
2022/01/19 06:44:17;;;;;;;5.93;4.45;;;3.90;99.90;;;4.32;100.00;101586.00;5055212;28;20113;-81
2022/01/19 06:46:44;;;;;;;4.32;3.88;;;3.90;99.90;;;4.32;100.00;101585.16;5037148;28;20040;-80
2022/01/19 06:49:13;;;;;;;7.60;4.03;;;3.90;99.90;;;4.36;100.00;101589.84;5036891;28;20485;-82
2022/01/19 06:51:39;;;;;;;5.72;5.00;;;3.90;99.90;;;4.38;100.00;101590.34;5036914;28;20117;-81
2022/01/19 06:54:05;;;;;;;5.88;4.40;;;3.90;99.90;;;4.25;100.00;101596.59;5036897;28;20071;-80
2022/01/19 06:56:36;;;;;;;5.47;4.72;;;3.90;99.90;;;4.40;100.00;101598.38;5036766;28;20029;-81
2022/01/19 06:59:02;;;;;;;6.72;5.18;;;3.80;99.90;;;4.44;100.00;101594.72;5036915;28;20516;-80
2022/01/19 07:01:31;;;;;;;5.50;4.90;;;3.90;99.90;;;4.47;100.00;101605.19;5037729;28;20484;-80
2022/01/19 07:04:00;;;;;;;8.23;5.43;;;3.90;99.90;;;4.42;100.00;101605.25;5053811;28;20451;-81
2022/01/19 07:06:29;;;;;;;6.78;5.90;;;3.80;99.90;;;4.47;100.00;101596.06;5041039;28;20037;-81
2022/01/19 07:08:55;;;;;;;7.57;5.53;;;3.90;99.90;;;4.46;100.00;101595.25;5060588;28;20037;-79
2022/01/19 07:11:20;;;;;;;7.07;5.72;;;3.90;99.90;;;4.55;100.00;101596.25;5042152;28;20025;-81
2022/01/19 07:13:46;;;;;;;7.13;6.07;;;3.90;99.90;;;4.47;100.00;101585.81;5054392;28;20116;-80
2022/01/19 07:16:12;;;;;;;6.63;4.82;;;3.90;99.90;;;4.52;100.00;101591.31;5038972;28;20030;-82
2022/01/19 07:18:39;;;;;;;6.35;5.18;;;3.90;99.90;;;4.54;100.00;101586.28;5057583;28;20029;-81
2022/01/19 07:21:05;;;;;;;6.80;5.13;;;3.90;99.90;;;4.57;100.00;101576.56;5043430;28;20025;-79
2022/01/19 07:23:37;;;;;;;6.85;5.30;;;3.90;99.90;;;4.51;100.00;101558.38;5059073;28;20048;-81
2022/01/19 07:26:03;;;;;;;6.50;5.22;;;3.90;99.90;;;4.54;100.00;101552.25;5044056;28;20099;-80
2022/01/19 07:28:29;;;;;;;7.28;5.50;;;4.00;99.90;;;4.52;100.00;101558.09;5059825;28;20041;-79
2022/01/19 07:30:57;;;;;;;7.47;5.68;;;4.00;99.90;;;4.55;100.00;101565.81;5042576;28;20496;-80
2022/01/19 07:33:23;;;;;;;6.72;5.38;;;3.90;99.90;;;4.54;100.00;101555.03;5063116;28;20025;-79
2022/01/19 07:35:51;;;;;;;6.10;5.50;;;4.00;99.90;;;4.53;100.00;101562.50;5065137;28;20115;-81
2022/01/19 07:38:26;;;;;;;5.93;5.00;;;4.00;99.90;;;4.62;100.00;101546.88;5059643;28;20025;-81
2022/01/19 07:40:56;;;;;;;6.55;5.50;;;4.00;99.90;;;4.48;100.00;101542.38;5062893;28;20017;-81
2022/01/19 07:43:22;;;;;;;6.18;5.20;;;4.00;99.90;;;4.48;100.00;101545.97;5041051;28;20082;-81
2022/01/19 07:45:49;;;;;;;7.00;5.47;;;4.00;99.90;;;4.58;100.00;101540.31;5057697;28;20025;-79
2022/01/19 07:48:15;;;;;;;6.78;5.82;;;4.00;99.90;;;4.62;100.00;101538.59;5056492;28;20032;-80
2022/01/19 07:50:41;;;;;;;5.80;5.20;;;4.00;99.90;;;4.64;100.00;101530.81;5039931;28;20142;-81
2022/01/19 07:53:09;;;;;;;7.65;5.55;;;4.00;99.90;;;4.63;100.00;101528.34;5058007;28;20048;-79
2022/01/19 07:55:35;;;;;;;6.47;5.28;;;4.00;99.90;;;4.60;100.00;101527.00;5039616;28;20041;-80
2022/01/19 07:58:02;;;;;;;6.22;5.40;;;4.00;99.90;;;4.67;100.00;101524.69;5057337;28;20123;-82
2022/01/19 08:00:29;;;;;;;7.57;5.38;;;4.00;99.90;;;4.67;100.00;101524.69;5058382;28;20024;-80
2022/01/19 08:02:56;;;;;;;6.35;5.35;;;4.10;99.90;;;4.65;100.00;101512.28;5039521;28;20033;-80
2022/01/19 08:05:22;;;;;;;5.63;4.68;;;4.10;99.90;;;4.58;100.00;101509.88;5040514;28;20135;-80
2022/01/19 08:07:48;;;;;;;7.32;5.35;;;4.00;99.90;;;4.63;100.00;101507.03;5057616;28;20044;-78
2022/01/19 08:10:17;;;;;;;6.57;5.22;;;4.10;99.90;;;4.72;100.00;101505.25;5039948;28;20040;-80
2022/01/19 08:12:43;;;;;;;6.80;5.40;;;4.10;99.90;;;4.77;100.00;101504.34;5040238;28;20029;-80
2022/01/19 08:15:10;;;;;;;7.13;5.40;;;4.10;99.90;;;4.79;100.00;101502.94;5055612;28;20033;-81
2022/01/19 08:17:37;;;;;;;6.82;5.40;;;4.10;99.90;;;4.85;100.00;101505.63;5039660;28;20025;-80
2022/01/19 08:20:07;;;;;;;8.60;5.72;;;4.10;99.90;;;4.83;100.00;101505.09;5039869;28;20025;-80
2022/01/19 08:22:33;;;;;;;8.32;5.10;;;4.20;99.90;;;4.89;100.00;101498.34;5038657;28;20075;-81
2022/01/19 08:24:59;;;;;;;6.43;5.70;;;4.20;99.90;;;4.78;100.00;101497.72;5054667;28;20441;-81
2022/01/19 08:27:25;;;;;;;8.05;5.97;;;4.20;99.90;;;4.81;100.00;101494.34;5035432;28;20033;-82
2022/01/19 08:29:51;;;;;;;6.70;5.90;;;4.20;99.90;;;4.86;100.00;101502.56;5036749;28;20495;-82
2022/01/19 08:32:17;;;;;;;7.88;5.78;;;4.20;99.90;;;4.95;100.00;101508.22;5035687;28;20052;-82
2022/01/19 08:34:43;;;;;;;11.65;6.38;;;4.30;99.90;;;4.91;100.00;101512.75;5035806;28;20029;-81
2022/01/19 08:37:14;;;;;;;7.20;6.20;;;4.30;99.90;;;5.02;99.90;101519.75;5037527;28;20036;-82
2022/01/19 08:39:47;;;;;;;8.10;5.75;;;4.30;99.90;;;5.02;100.00;101505.91;5037641;28;20021;-81
2022/01/19 08:42:14;;;;;;;8.38;6.70;;;4.30;99.90;;;5.01;100.00;101507.84;5045669;28;20025;-82
2022/01/19 08:44:46;;;;;;;8.80;7.20;;;4.30;99.90;;;4.99;100.00;101518.41;5054871;28;20115;-82
2022/01/19 08:47:15;;;;;;;9.23;7.10;;;4.30;99.90;;;4.97;100.00;101517.09;5051655;28;20041;-81
2022/01/19 08:49:42;;;;;;;7.72;6.93;;;4.30;99.90;;;4.99;100.00;101518.41;5036332;28;20034;-80
2022/01/19 08:52:08;;;;;;;8.75;7.32;;;4.30;99.90;;;5.02;99.91;101517.81;5034583;28;20489;-82
2022/01/19 08:54:35;;;;;;;8.10;7.30;;;4.30;99.90;;;5.04;99.84;101509.22;5034734;28;20033;-82
2022/01/19 08:57:02;;;;;;;8.10;7.20;;;4.30;99.90;;;5.05;99.61;101500.59;5051985;28;20029;-82
2022/01/19 08:59:29;;;;;;;10.40;6.80;;;4.30;99.90;;;5.02;98.77;101500.38;5036441;28;20063;-83
2022/01/19 09:01:55;;;;;;;10.68;6.93;;;4.30;99.90;;;5.06;99.00;101490.34;5034065;28;20045;-80
2022/01/19 09:04:21;;;;;;;7.30;6.30;;;4.40;99.90;;;5.01;98.11;101487.69;5034736;28;20029;-81
2022/01/19 09:06:47;;;;;;;7.97;6.82;;;4.30;99.90;;;5.04;97.48;101479.56;5034782;28;20029;-79
2022/01/19 09:09:12;;;;;;;8.98;7.07;;;4.40;99.90;;;5.07;97.87;101475.41;5036229;28;20037;-80
2022/01/19 09:11:38;;;;;;;12.30;7.63;;;4.30;99.90;;;5.09;97.40;101473.97;5050687;28;20034;-79
2022/01/19 09:14:06;;;;;;;12.05;8.18;;;4.40;99.90;;;5.05;96.69;101467.38;5034919;28;20060;-79
2022/01/19 09:16:34;;;;;;;12.88;8.32;;;4.40;99.90;;;4.95;97.91;101462.00;5034773;28;20479;-80
2022/01/19 09:19:07;;;;;;;10.05;7.90;;;4.40;99.90;;;4.98;98.09;101468.88;5035211;28;20075;-81
2022/01/19 09:21:34;;;;;;;9.43;7.47;;;4.40;99.90;;;4.97;97.71;101467.25;5050326;28;20075;-80
2022/01/19 09:24:00;;;;;;;11.50;8.80;;;4.30;99.90;;;4.94;98.48;101465.09;5051013;28;20021;-82
2022/01/19 09:26:30;;;;;;;12.27;8.55;;;4.30;99.90;;;4.95;99.04;101455.63;5038803;28;20082;-80
2022/01/19 09:28:57;;;;;;;10.80;8.80;;;4.30;99.90;;;4.93;98.68;101455.13;5055619;28;20033;-82
2022/01/19 09:31:24;;;;;;;9.75;8.35;;;4.30;99.90;;;4.98;99.22;101463.34;5053994;28;20028;-82
2022/01/19 09:34:07;;;;;;;10.63;9.18;;;4.30;99.90;;;4.91;99.27;101455.44;5054494;28;20037;-82
2022/01/19 09:36:44;;;;;;;11.73;9.02;;;4.30;99.90;;;4.94;99.21;101454.00;5054033;28;20029;-81
2022/01/19 09:39:22;;;;;;;13.50;10.15;;;4.20;99.90;;;4.95;99.63;101439.03;5054634;28;20107;-81
2022/01/19 09:41:56;;;;;;;14.43;10.77;;;4.20;99.90;;;4.91;99.14;101438.81;5053379;28;20028;-80
2022/01/19 09:44:29;;;;;;;16.80;12.32;;;4.20;99.90;;;4.89;99.76;101435.53;5037810;28;20029;-82
2022/01/19 09:46:57;;;;;;;17.27;13.52;;;4.20;99.90;;;4.93;100.00;101442.09;5042259;28;20029;-82
2022/01/19 09:49:23;;;;;;;19.08;12.93;;;4.20;99.90;;;4.93;99.91;101441.28;5055510;28;20032;-80
2022/01/19 09:51:54;;;;;;;20.05;13.43;;;4.20;99.90;;;4.84;100.00;101443.91;5055494;28;20247;-81
2022/01/19 09:54:27;;;;;;;20.80;14.25;;;4.20;99.90;;;4.81;100.00;101433.44;5040601;28;20039;-83
2022/01/19 09:56:55;;;;;;;21.88;14.63;;;4.10;99.90;;;4.75;100.00;101441.00;5040923;28;20482;-82
2022/01/19 09:59:23;;;;;;;21.73;14.98;;;4.10;99.90;;;4.66;100.00;101439.19;5060173;28;20364;-81
2022/01/19 10:02:01;;;;;;;24.05;15.73;;;4.10;99.90;;;4.79;100.00;101432.91;5062737;28;20029;-81
2022/01/19 10:04:34;;;;;;;19.17;14.13;;;4.10;99.90;;;4.77;99.61;101436.00;5058308;28;20392;-80
2022/01/19 10:07:16;;;;;;;20.02;14.13;;;4.10;99.90;;;4.79;99.18;101417.13;5039467;28;20123;-80
2022/01/19 10:09:59;;;;;;;17.38;12.30;;;4.10;99.90;;;4.84;98.72;101418.19;5056837;28;20539;-78
2022/01/19 10:18:29;;;;;;;21.55;13.98;;;4.10;99.90;;;4.84;98.42;101407.09;5055968;28;20036;-80
2022/01/19 10:21:16;;;;;;;20.58;13.40;;;4.10;99.90;;;4.88;98.51;101399.84;5037607;28;20341;-80
2022/01/19 10:23:52;;;;;;;;;;;4.20;99.90;;;4.90;98.09;101398.41;5055405;28;20029;-81
2022/01/19 10:26:28;;;;;;;18.13;12.73;;;4.20;99.90;;;4.84;97.96;101388.56;5035672;28;20287;-82
2022/01/19 10:29:04;;;;;;;21.02;13.90;;;4.20;99.90;;;4.92;97.78;101382.31;5035823;28;20037;-82
2022/01/19 10:31:35;;;;;;;22.00;13.93;;;4.30;99.90;;;4.81;98.55;101377.28;5035077;28;20034;-82
2022/01/19 10:34:23;;;;;;;21.00;13.40;;;4.20;99.90;;;4.94;98.00;101370.97;5036255;28;20067;-80
2022/01/19 10:37:02;;;;;;;21.73;14.05;;;4.30;99.90;;;4.91;97.98;101366.03;5051216;28;20030;-80
2022/01/19 10:39:53;;;;;;;19.98;13.02;;;4.30;99.90;;;5.00;98.38;101364.19;5036163;28;20053;-80
2022/01/19 10:42:27;;;;;;;21.40;13.00;;;4.20;99.90;;;5.01;97.35;101357.56;5034861;28;20037;-79
2022/01/19 10:44:58;;;;;;;22.50;13.63;;;4.30;99.90;;;4.95;98.45;101355.97;5035672;28;20028;-80
2022/01/19 10:47:48;;;;;;;19.77;13.20;;;4.30;99.90;;;4.99;97.04;101359.78;5035183;28;20026;-79
2022/01/19 10:50:31;;;;;;;19.83;13.45;;;4.30;99.90;;;4.96;97.05;101354.84;5038184;28;20053;-80
2022/01/19 10:53:04;;;;;;;21.27;13.68;;;4.30;99.90;;;4.95;97.51;101351.25;5050551;28;20373;-80
2022/01/19 10:55:44;;;;;;;22.13;14.27;;;4.30;99.90;;;4.98;97.76;101353.41;5033724;28;20461;-80
2022/01/19 10:58:16;;;;;;;21.30;12.93;;;4.40;99.90;;;5.02;97.53;101346.16;5033308;28;20478;-80
2022/01/19 11:00:52;;;;;;;21.63;13.63;;;4.40;99.90;;;4.99;96.66;101346.78;5050728;28;20021;-81
2022/01/19 11:03:28;;;;;;;23.55;13.23;;;4.40;99.90;;;5.01;97.12;101341.75;5033313;28;20034;-80
2022/01/19 11:05:59;;;;;;;19.85;12.60;;;4.40;99.90;;;5.15;97.51;101341.78;5034207;28;20120;-81
2022/01/19 11:08:29;;;;;;;21.98;13.50;;;4.40;99.90;;;5.29;96.80;101337.09;5035669;28;20100;-79
2022/01/19 11:11:01;;;;;;;20.10;13.68;;;4.50;99.90;;;5.14;97.22;101335.41;5051599;28;20056;-80
2022/01/19 11:13:33;;;;;;;20.55;12.85;;;4.50;99.90;;;5.14;96.86;101326.28;5035045;28;20378;-80
2022/01/19 11:16:03;;;;;;;18.27;12.23;;;4.50;99.90;;;5.29;96.19;101323.22;5036087;28;20030;-80
2022/01/19 11:18:37;;;;;;;20.25;13.32;;;4.60;99.90;;;5.41;96.21;101318.00;5050992;28;20038;-81
2022/01/19 11:21:10;;;;;;;21.08;13.75;;;4.60;99.90;;;5.31;96.21;101304.34;5033640;28;20025;-80
2022/01/19 11:24:36;;;;;;;19.55;13.35;;;4.60;99.90;;;5.36;95.66;101308.97;5053040;28;20053;-81
2022/01/19 11:27:05;;;;;;;19.83;12.80;;;4.70;99.90;;;5.33;95.43;101304.84;5043486;28;20033;-81
2022/01/19 11:29:32;;;;;;;21.20;13.43;;;4.70;99.90;;;5.36;95.98;101303.44;5064862;28;20052;-83
2022/01/19 11:32:16;;;;;;;21.75;13.63;;;4.70;99.90;;;5.44;95.84;101283.31;5063701;28;20057;-81
2022/01/19 11:34:50;;;;;;;18.77;12.52;;;4.70;99.90;;;5.17;96.34;101278.63;5061513;28;20033;-79
2022/01/19 11:37:43;;;;;;;20.48;13.32;;;4.60;99.90;;;5.22;96.63;101275.72;5060999;28;20033;-77
2022/01/19 11:40:24;;;;;;;21.70;13.07;;;4.60;99.90;;;5.21;96.52;101258.28;5064042;28;20040;-81
2022/01/19 11:43:29;;;;;;;20.90;13.85;;;4.60;99.90;;;5.25;95.93;101247.41;5062570;28;20143;-80
2022/01/19 11:45:58;;;;;;;21.60;13.18;;;4.60;99.90;;;5.17;96.70;101228.75;5063466;28;20040;-79
2022/01/19 11:48:32;;;;;;;18.50;12.65;;;4.60;99.90;;;5.29;96.75;101237.38;5091244;22;20029;-83
2022/01/19 11:51:26;;;;;;;18.80;13.10;;;4.60;99.90;;;5.34;96.80;101240.03;5001778;28;20045;-82